ADDS METAR Data INFO
IDs: Format: Raw Decoded Include TAF

Data at: 1154 UTC 25 Jun 2018

KBMT 251135Z AUTO 16005KT 10SM CLR 27/24 A2998 RMK AO2 T02680242
KBMT 251115Z AUTO 16004KT 10SM SCT017 27/24 A2999 RMK AO2 T02660241
KBMT 251055Z AUTO 17005KT 10SM CLR 27/24 A2998 RMK AO2 T02680240
KBMT 251035Z AUTO 16006KT 10SM CLR 27/24 A2997 RMK AO2 T02680241
KBMT 251015Z AUTO 16006KT 10SM SCT018 27/24 A2997 RMK AO2 T02660241
KBMT 250955Z AUTO 16005KT 10SM SCT018 27/24 A2997 RMK AO2 T02650241
KBMT 250935Z AUTO 16004KT 10SM SCT019 BKN024 BKN029 27/24 A2997 RMK AO2 T02650240
KBMT 250915Z AUTO 17004KT 10SM SCT025 27/24 A2997 RMK AO2 T02650240
KBMT 250855Z AUTO 16004KT 10SM CLR 27/24 A2997 RMK AO2 T02650240
KBMT 250835Z AUTO 16004KT 10SM CLR 26/24 A2997 RMK AO2 T02640240
KBMT 250815Z AUTO 15003KT 10SM CLR 27/24 A2997 RMK AO2 T02650240
KBMT 250755Z AUTO 16004KT 10SM CLR 27/24 A2997 RMK AO2 T02650240
KBMT 250735Z AUTO 16004KT 10SM CLR 27/24 A2997 RMK AO2 T02650240
KBMT 250715Z AUTO 15004KT 10SM CLR 27/24 A2998 RMK AO2 T02650241
KBMT 250655Z AUTO 16004KT 10SM CLR 27/24 A2998 RMK AO2 T02660243
KBMT 250635Z AUTO 16003KT 10SM SCT020 SCT028 27/25 A2998 RMK AO2 T02660245
KBMT 250615Z AUTO 17003KT 10SM BKN020 BKN025 27/25 A2998 RMK AO2 T02660245
KBMT 250555Z AUTO 00000KT 10SM BKN018 BKN024 27/25 A2999 RMK AO2 T02700245 10305 20266 403330255
KBMT 250535Z AUTO 15004KT 10SM BKN020 BKN026 27/25 A2997 RMK AO2 T02690246
KBMT 250515Z AUTO 14003KT 10SM BKN022 BKN034 BKN039 27/25 A2997 RMK AO2 T02700245
KBMT 250455Z AUTO 14005KT 10SM BKN024 BKN034 27/25 A2997 RMK AO2 T02710245
KBMT 250435Z AUTO 14005KT 10SM SCT032 27/24 A2997 RMK AO2 T02700244
KBMT 250415Z AUTO 13005KT 10SM CLR 27/25 A2997 RMK AO2 T02670245
KBMT 250355Z AUTO 12003KT 10SM CLR 27/25 A2997 RMK AO2 T02700245
KBMT 250335Z AUTO 14003KT 10SM CLR 27/25 A2997 RMK AO2 T02710245
KBMT 250315Z AUTO 15005KT 10SM CLR 27/25 A2996 RMK AO2 T02720245
KBMT 250255Z AUTO 15005KT 10SM CLR 28/25 A2995 RMK AO2 T02750245
KBMT 250235Z AUTO 14004KT 10SM CLR 27/24 A2995 RMK AO2 T02730242
KBMT 250215Z AUTO 14004KT 10SM CLR 28/24 A2995 RMK AO2 T02750242
KBMT 250155Z AUTO 16004KT 10SM CLR 28/24 A2995 RMK AO2 LTG DSNT E T02750240
KBMT 250135Z AUTO 17004KT 10SM CLR 28/24 A2995 RMK AO2 T02800238
KBMT 250115Z AUTO 15004KT 10SM CLR 29/24 A2995 RMK AO2 T02860235
KBMT 250055Z AUTO 16007KT 10SM SCT029 29/23 A2994 RMK AO2 T02940231
KBMT 250035Z AUTO 17006KT 10SM SCT029 30/24 A2994 RMK AO2 T02990235
KBMT 250015Z AUTO 18009G14KT 10SM CLR 30/24 A2994 RMK AO2 T02990235
KBMT 242355Z AUTO 17006KT 10SM CLR 30/24 A2993 RMK AO2 T03000238 10333 20300
KBMT 242335Z AUTO 17011KT 10SM SCT031 SCT038 31/24 A2993 RMK AO2 T03100236
KBMT 242315Z AUTO 19008KT 10SM BKN031 BKN038 31/23 A2993 RMK AO2 T03100234
KBMT 242255Z AUTO 17009KT 10SM BKN031 32/24 A2992 RMK AO2 T03160237
KBMT 242235Z AUTO 17012G17KT 140V200 10SM BKN031 32/24 A2993 RMK AO2 T03150238
KBMT 242215Z AUTO 18015G18KT 10SM SCT033 SCT038 32/23 A2993 RMK AO2 T03200232
KBMT 242155Z AUTO 17011G19KT 10SM SCT028 SCT037 32/23 A2993 RMK AO2 T03170233
KBMT 242135Z AUTO 18012G17KT 10SM SCT028 SCT043 SCT050 32/24 A2994 RMK AO2 T03180237
KBMT 242115Z AUTO 17014G19KT 10SM SCT026 SCT033 BKN042 32/25 A2994 RMK AO2 T03200246
KBMT 242055Z AUTO 18010KT 10SM SCT026 BKN038 BKN050 32/25 A2995 RMK AO2 T03170246
KBMT 242035Z AUTO 17008G19KT 10SM SCT030 BKN038 BKN050 32/24 A2996 RMK AO2 T03200244
KBMT 242015Z AUTO 16012G18KT 10SM SCT032 SCT040 33/24 A2996 RMK AO2 T03310238
KBMT 241955Z AUTO 18011G20KT 10SM SCT030 SCT040 32/24 A2995 RMK AO2 T03240238
KBMT 241935Z AUTO 15012G20KT 10SM BKN030 BKN040 33/24 A2995 RMK AO2 T03260244
KBMT 241915Z AUTO 15014G20KT 10SM SCT028 SCT034 BKN041 32/24 A2995 RMK AO2 T03220243
KBMT 241855Z AUTO 17013G20KT 10SM CLR 33/23 A2995 RMK AO2 T03270234
KBMT 241835Z AUTO 16013G18KT 10SM CLR 33/24 A2996 RMK AO2 T03280236
KBMT 241815Z AUTO 18013G19KT 10SM SCT032 SCT047 SCT055 33/24 A2996 RMK AO2 T03280241
KBMT 241755Z AUTO 17013G19KT 10SM SCT034 SCT042 SCT049 33/24 A2997 RMK AO2 T03290241 10329 20260
KBMT 241735Z AUTO 18013G17KT 10SM SCT032 SCT039 BKN060 33/24 A2998 RMK AO2 T03280237
KBMT 241715Z AUTO 17009KT 10SM SCT032 BKN045 BKN075 32/24 A2997 RMK AO2 T03170238
KBMT 241655Z AUTO 14010G14KT 10SM SCT030 SCT037 33/24 A2997 RMK AO2 T03260242
KBMT 241635Z AUTO 17010G15KT 10SM SCT032 SCT037 BKN046 32/24 A2997 RMK AO2 T03230239
KBMT 241615Z AUTO 20010KT 10SM SCT035 SCT046 SCT050 33/24 A2996 RMK AO2 T03250236
KBMT 241555Z AUTO 19010G18KT 10SM CLR 32/24 A2995 RMK AO2 T03180236
KBMT 241535Z AUTO 18011KT 10SM CLR 32/25 A2995 RMK AO2 T03190245
KBMT 241515Z AUTO 18009KT 10SM SCT024 SCT041 31/24 A2995 RMK AO2 T03130243
KBMT 241455Z AUTO 17009KT 10SM BKN024 BKN032 OVC040 31/25 A2994 RMK AO2 T03090245
KBMT 241435Z AUTO 18012G16KT 10SM SCT024 BKN035 31/24 A2994 RMK AO2 T03070241
KBMT 241415Z AUTO 17007KT 10SM SCT020 SCT025 BKN032 30/24 A2993 RMK AO2 LTG DSNT S T02950243
KBMT 241355Z AUTO 17009G14KT 10SM BKN018 BKN029 30/25 A2992 RMK AO2 T03010249
KBMT 241335Z AUTO 18008KT 10SM SCT018 29/25 A2991 RMK AO2 T02920251
KBMT 241315Z AUTO 17007KT 10SM CLR 29/25 A2991 RMK AO2 T02850250
KBMT 241255Z AUTO 17008KT 10SM CLR 28/25 A2990 RMK AO2 T02810250
KBMT 241235Z AUTO 16004KT 10SM CLR 27/25 A2991 RMK AO2 LTG DSNT S T02650245
KBMT 241215Z AUTO 15003KT 10SM CLR 26/24 A2992 RMK AO2 T02600242
KBMT 241155Z AUTO 00000KT 10SM SCT018 SCT024 26/24 A2992 RMK AO2 T02600241 10268 20255
KBMT 241135Z AUTO 15003KT 10SM SCT018 SCT026 SCT030 26/24 A2992 RMK AO2 T02580240
KBMT 241115Z AUTO 14003KT 10SM SCT022 SCT030 BKN046 26/24 A2992 RMK AO2 T02560240
KBMT 241055Z AUTO 00000KT 10SM SCT022 SCT029 BKN044 26/24 A2992 RMK AO2 T02580240
KBMT 241035Z AUTO 00000KT 10SM SCT018 SCT024 SCT029 26/24 A2991 RMK AO2 T02570240
KBMT 241015Z AUTO 16003KT 10SM SCT017 SCT023 SCT029 26/24 A2991 RMK AO2 T02550236
KBMT 240955Z AUTO 00000KT 10SM SCT022 26/24 A2991 RMK AO2 T02560237
KBMT 240935Z AUTO 16003KT 10SM CLR 26/24 A2991 RMK AO2 T02590236
KBMT 240915Z AUTO 18003KT 10SM CLR 26/24 A2991 RMK AO2 T02610237
KBMT 240855Z AUTO 17004KT 10SM SCT031 26/24 A2991 RMK AO2 T02640238
KBMT 240835Z AUTO 16004KT 10SM CLR 26/24 A2991 RMK AO2 T02620238
KBMT 240815Z AUTO 18005KT 10SM CLR 27/24 A2992 RMK AO2 T02650238
KBMT 240755Z AUTO 17005KT 10SM SCT020 SCT033 27/24 A2992 RMK AO2 T02660240
KBMT 240735Z AUTO 18004KT 10SM SCT020 BKN033 27/24 A2993 RMK AO2 T02680243
KBMT 240715Z AUTO 18004KT 10SM SCT020 SCT027 SCT035 27/24 A2993 RMK AO2 T02660243
KBMT 240655Z AUTO 18003KT 10SM SCT020 BKN032 27/24 A2992 RMK AO2 T02650242
KBMT 240635Z AUTO 17004KT 10SM SCT020 SCT026 SCT032 26/24 A2992 RMK AO2 T02630241
KBMT 240615Z AUTO 16003KT 10SM SCT020 BKN030 27/24 A2991 RMK AO2 T02650243
KBMT 240555Z AUTO 16004KT 10SM SCT018 26/24 A2990 RMK AO2 T02630242 10302 20262 403320240
KBMT 240535Z AUTO 16004KT 10SM SCT018 26/24 A2989 RMK AO2 T02630243
KBMT 240515Z AUTO 16003KT 10SM SCT018 SCT026 26/24 A2989 RMK AO2 T02630243
KBMT 240455Z AUTO 16004KT 10SM SCT026 27/24 A2989 RMK AO2 T02650244
KBMT 240435Z AUTO 16004KT 10SM SCT017 SCT027 27/24 A2989 RMK AO2 T02650243
KBMT 240415Z AUTO 15004KT 10SM SCT019 SCT024 27/24 A2989 RMK AO2 T02660243
KBMT 240355Z AUTO 15004KT 10SM CLR 27/24 A2989 RMK AO2 T02660243
KBMT 240335Z AUTO 16005KT 10SM CLR 27/24 A2988 RMK AO2 T02650242
KBMT 240315Z AUTO 16005KT 10SM CLR 27/24 A2987 RMK AO2 T02670242
KBMT 240255Z AUTO 16004KT 10SM CLR 27/24 A2988 RMK AO2 T02670242
KBMT 240235Z AUTO 16005KT 10SM SCT019 27/24 A2987 RMK AO2 T02700242
KBMT 240215Z AUTO 15004KT 10SM SCT019 27/24 A2987 RMK AO2 T02710241
KBMT 240155Z AUTO 16004KT 10SM SCT020 28/24 A2986 RMK AO2 T02750240
KBMT 240135Z AUTO 16005KT 10SM SCT020 28/24 A2986 RMK AO2 T02760240
KBMT 240115Z AUTO 16006KT 10SM CLR 28/24 A2986 RMK AO2 T02810240
KBMT 240055Z AUTO 17007KT 10SM CLR 29/24 A2986 RMK AO2 T02860238
KBMT 240035Z AUTO 17009KT 10SM SCT023 29/24 A2985 RMK AO2 T02910236
KBMT 240015Z AUTO 17008G16KT 10SM SCT023 30/24 A2985 RMK AO2 T03000241
KBMT 232355Z AUTO 18011G16KT 10SM CLR 30/24 A2984 RMK AO2 T03010239 10332 20299